Terminal Aerodrome Forecast
Issued by NWS

Home | Current Version | Previous Version | Text Only | Print | Product List | Glossary On
Versions: 1 2 3 4 5 6 7 8 9 10 11 12 13 14 15
000
FTUS43 KICT 200500
TAFCNU
TAF
KCNU 200520Z 2006/2106 18007KT P6SM OVC070
     FM201400 26004KT P6SM BKN070
     FM201700 00000KT P6SM SCT060
     FM202000 02007KT P6SM SKC=

USA.gov is the U.S. government's official web portal to all federal, state and local government web resources and services.